Time;durP1;ratioP1;P1;durP2;ratioP2;P2;SDS_P1;SDS_P2;PMS_P1;PMS_P2;Temp;Humidity;BMP_temperature;BMP_pressure;BME280_temperature;BME280_humidity;BME280_pressure;Samples;Min_cycle;Max_cycle;Signal;HPM_P1;HPM_P2
2021/04/16 00:03:35;;;;;;;20.55;14.50;;;;;;;4.43;81.13;100020.54;233009;1174;117222;-65
2021/04/16 00:08:39;;;;;;;18.20;14.60;;;;;;;4.37;81.39;100019.47;233470;1175;115384;-65
2021/04/16 00:13:43;;;;;;;19.63;13.85;;;;;;;4.35;80.62;100013.55;233385;1175;116062;-65
2021/04/16 00:18:46;;;;;;;17.95;16.05;;;;;;;4.38;81.39;100021.10;233962;1175;115894;-64
2021/04/16 00:23:50;;;;;;;17.60;14.00;;;;;;;4.36;81.41;100009.91;233175;1176;115898;-65
2021/04/16 00:28:53;;;;;;;22.18;16.58;;;;;;;4.38;81.00;100016.64;232667;1175;116367;-67
2021/04/16 00:34:00;;;;;;;20.25;15.85;;;;;;;4.44;81.43;100001.88;232722;1176;117504;-65
2021/04/16 00:39:04;;;;;;;20.10;13.60;;;;;;;4.45;81.76;100000.88;232960;1175;116364;-65
2021/04/16 00:44:08;;;;;;;17.40;13.00;;;;;;;4.40;81.63;100001.44;232527;1176;116601;-65
2021/04/16 00:49:27;;;;;;;19.53;15.43;;;;;;;4.45;81.01;99992.95;232602;1176;117894;-66
2021/04/16 00:54:35;;;;;;;18.23;13.98;;;;;;;4.45;81.56;99992.95;232863;1174;116287;-66
2021/04/16 00:59:43;;;;;;;;;;;;;;;4.42;81.29;99982.77;232689;1176;116756;-66
2021/04/16 01:04:46;;;;;;;20.65;15.15;;;;;;;4.40;81.09;99985.59;234266;1174;102982;-65
2021/04/16 01:09:50;;;;;;;17.60;13.03;;;;;;;4.46;81.75;99975.30;233610;1174;116480;-65
2021/04/16 01:15:01;;;;;;;21.18;13.65;;;;;;;4.45;81.22;99979.76;233268;1175;116165;-66
2021/04/16 01:20:17;;;;;;;22.03;14.37;;;;;;;4.49;81.04;99967.82;233402;1176;115923;-65
2021/04/16 01:25:24;;;;;;;18.60;15.10;;;;;;;4.54;81.15;99968.07;233937;1174;115656;-67
2021/04/16 01:30:31;;;;;;;17.90;13.35;;;;;;;4.56;81.63;99968.70;234718;1174;115559;-66
2021/04/16 01:35:36;;;;;;;16.38;13.05;;;;;;;4.58;81.75;99966.69;234516;1174;115053;-66
2021/04/16 01:40:40;;;;;;;18.60;12.38;;;;;;;4.64;80.88;99963.27;234994;1174;117545;-66
2021/04/16 01:45:44;;;;;;;16.68;11.35;;;;;;;4.64;81.18;99962.45;234950;1174;115436;-67
2021/04/16 01:50:48;;;;;;;14.08;11.13;;;;;;;4.61;81.55;99966.28;232446;1176;116304;-65
2021/04/16 01:55:52;;;;;;;12.90;10.35;;;;;;;4.65;81.59;99967.53;234637;1175;114990;-67
2021/04/16 02:00:57;;;;;;;13.25;10.43;;;;;;;4.62;81.65;99959.17;232797;1177;116217;-67
2021/04/16 02:06:03;;;;;;;13.40;10.13;;;;;;;4.60;81.44;99961.19;232599;1176;116091;-65
2021/04/16 02:11:07;;;;;;;12.77;10.80;;;;;;;4.54;82.15;99951.41;232632;1176;117049;-65
2021/04/16 02:16:11;;;;;;;10.93;7.60;;;;;;;4.58;81.53;99952.67;233430;1174;116069;-65
2021/04/16 02:21:14;;;;;;;10.27;8.53;;;;;;;4.53;81.63;99952.42;233301;1175;115577;-66
2021/04/16 02:26:18;;;;;;;5.83;5.28;;;;;;;4.42;81.60;99945.82;233346;1174;116472;-65
2021/04/16 02:31:22;;;;;;;10.48;7.13;;;;;;;4.38;81.99;99944.56;233007;1174;115872;-66
2021/04/16 02:36:27;;;;;;;6.95;6.10;;;;;;;4.37;82.61;99942.92;232830;1176;117032;-65
2021/04/16 02:41:30;;;;;;;9.40;7.07;;;;;;;4.32;82.37;99940.03;232732;1177;116767;-65
2021/04/16 02:46:34;;;;;;;14.83;10.77;;;;;;;4.31;82.01;99947.13;233035;1176;116922;-66
2021/04/16 02:51:39;;;;;;;14.08;10.70;;;;;;;4.32;82.31;99953.23;232910;1175;115717;-65
2021/04/16 02:56:43;;;;;;;11.68;10.03;;;;;;;4.27;82.24;99953.81;232709;1175;116360;-65
2021/04/16 03:01:48;;;;;;;14.50;11.07;;;;;;;4.26;82.24;99954.83;233220;1174;115883;-65
2021/04/16 03:06:51;;;;;;;12.80;10.18;;;;;;;4.25;82.63;99958.47;234091;1174;115946;-65
2021/04/16 03:11:55;;;;;;;8.35;6.08;;;;;;;4.26;82.34;99957.46;232514;1174;117089;-66
2021/04/16 03:16:59;;;;;;;11.25;7.13;;;;;;;4.22;82.81;99956.20;232732;1174;115823;-65
2021/04/16 03:22:02;;;;;;;10.37;7.30;;;;;;;4.22;82.91;99956.20;232708;1170;115572;-65
2021/04/16 03:27:07;;;;;;;7.80;7.00;;;;;;;4.29;83.03;99958.88;232442;1174;115374;-65
2021/04/16 03:32:11;;;;;;;7.20;5.70;;;;;;;4.28;82.62;99950.14;233918;1174;114987;-66
2021/04/16 03:37:14;;;;;;;12.35;6.48;;;;;;;4.29;82.49;99949.14;233976;1174;114793;-65
2021/04/16 03:42:18;;;;;;;4.00;3.68;;;;;;;4.32;81.95;99945.31;235059;1174;115266;-65
2021/04/16 03:47:22;;;;;;;7.23;6.00;;;;;;;4.28;82.91;99952.78;233822;1175;115236;-65
2021/04/16 03:52:27;;;;;;;8.35;6.33;;;;;;;4.32;82.56;99951.41;233200;1175;114914;-66
2021/04/16 03:57:32;;;;;;;8.38;6.03;;;;;;;4.34;82.20;99953.86;232851;1174;114437;-64
2021/04/16 04:02:36;;;;;;;19.20;8.10;;;;;;;4.32;82.64;99953.23;234368;1174;114970;-65
2021/04/16 04:07:40;;;;;;;8.15;7.10;;;;;;;4.36;81.94;99955.30;233588;1175;114847;-66
2021/04/16 04:12:43;;;;;;;6.50;5.80;;;;;;;4.44;82.82;99964.11;232559;1174;114998;-64
2021/04/16 04:17:46;;;;;;;8.25;6.18;;;;;;;4.39;82.94;99959.39;233975;1174;114660;-65
2021/04/16 04:22:49;;;;;;;9.83;6.98;;;;;;;4.42;82.20;99968.75;232704;1171;115059;-65
2021/04/16 04:27:53;;;;;;;7.90;7.20;;;;;;;4.44;81.92;99957.01;233250;1175;115214;-64
2021/04/16 04:32:57;;;;;;;8.70;6.80;;;;;;;4.44;82.67;99949.09;233237;1176;115200;-65
2021/04/16 04:38:01;;;;;;;13.90;9.03;;;;;;;4.44;81.64;99953.55;232936;1175;114755;-65
2021/04/16 04:43:07;;;;;;;11.00;8.50;;;;;;;4.42;81.90;99951.09;232586;1175;115434;-65
2021/04/16 04:48:10;;;;;;;8.95;6.85;;;;;;;4.35;82.41;99952.85;232834;1174;115747;-65
2021/04/16 04:53:14;;;;;;;7.70;6.60;;;;;;;4.33;82.22;99962.78;232877;1174;115538;-65
2021/04/16 04:58:18;;;;;;;13.07;8.20;;;;;;;4.32;82.75;99959.32;232624;1169;115004;-65
2021/04/16 05:03:22;;;;;;;16.90;8.43;;;;;;;4.34;82.66;99956.50;233018;1174;116456;-64
2021/04/16 05:08:25;;;;;;;8.90;8.00;;;;;;;4.30;82.00;99966.61;233317;1174;115237;-65
2021/04/16 05:13:29;;;;;;;18.05;9.20;;;;;;;4.31;82.19;99962.15;233481;1175;114555;-65
2021/04/16 05:18:37;;;;;;;16.98;9.03;;;;;;;4.31;82.09;99960.33;233546;1174;114784;-64
2021/04/16 05:23:42;;;;;;;11.67;8.77;;;;;;;4.34;82.96;99965.23;233709;1176;115558;-65
2021/04/16 05:28:45;;;;;;;11.80;9.90;;;;;;;4.32;82.04;99966.42;233443;1176;115567;-66
2021/04/16 05:33:51;;;;;;;10.10;8.43;;;;;;;4.35;82.40;99976.61;234038;1174;115300;-64
2021/04/16 05:38:54;;;;;;;11.48;8.55;;;;;;;4.33;82.57;99971.52;235058;1174;114923;-65
2021/04/16 05:43:58;;;;;;;10.43;8.77;;;;;;;4.34;82.13;99962.59;234942;1174;114725;-65
2021/04/16 05:49:02;;;;;;;9.85;7.58;;;;;;;4.47;81.76;99961.09;234978;1176;114900;-66
2021/04/16 05:54:06;;;;;;;12.15;8.58;;;;;;;4.50;81.67;99960.72;234965;1176;115879;-66
2021/04/16 05:59:11;;;;;;;13.80;8.07;;;;;;;4.52;81.84;99966.63;233195;1174;115370;-65
2021/04/16 06:04:18;;;;;;;10.85;7.85;;;;;;;4.54;82.43;99968.07;233879;1171;115336;-65
2021/04/16 06:09:22;;;;;;;9.03;8.13;;;;;;;4.56;82.17;99967.88;233588;1175;115299;-65
2021/04/16 06:14:25;;;;;;;10.20;6.97;;;;;;;4.56;81.92;99965.24;233588;1174;115711;-66
2021/04/16 06:19:28;;;;;;;14.98;9.23;;;;;;;4.48;81.59;99966.19;232364;1176;114940;-66
2021/04/16 06:24:36;;;;;;;13.08;10.53;;;;;;;4.44;82.43;99972.84;232357;1174;115245;-65
2021/04/16 06:29:42;;;;;;;14.90;10.50;;;;;;;4.47;82.17;99966.38;233103;1175;115337;-65
2021/04/16 06:34:48;;;;;;;14.53;10.43;;;;;;;4.47;81.91;99971.65;232909;1176;115635;-65
2021/04/16 06:39:52;;;;;;;18.90;13.20;;;;;;;4.46;82.22;99962.09;233379;1175;114884;-65
2021/04/16 06:44:58;;;;;;;15.85;12.30;;;;;;;4.55;81.87;99960.97;233004;1175;116082;-66
2021/04/16 06:50:04;;;;;;;18.60;11.28;;;;;;;4.59;82.07;99960.38;232257;1168;116519;-65
2021/04/16 06:55:11;;;;;;;13.67;10.03;;;;;;;4.59;81.92;99962.20;232550;1175;116380;-65
2021/04/16 07:00:30;;;;;;;18.20;11.43;;;;;;;4.59;81.68;99959.55;233181;1170;115075;-65
2021/04/16 07:05:38;;;;;;;16.55;10.95;;;;;;;4.59;82.04;99970.93;232775;1167;116307;-65
2021/04/16 07:10:44;;;;;;;17.17;10.00;;;;;;;4.66;82.08;99969.17;232414;1174;115717;-65
2021/04/16 07:15:51;;;;;;;16.90;7.80;;;;;;;4.68;82.10;99967.16;233299;1176;114963;-65
2021/04/16 07:20:56;;;;;;;15.10;9.30;;;;;;;4.71;81.56;99968.60;232625;1176;116470;-66
2021/04/16 07:26:31;;;;;;;13.43;10.15;;;;;;;4.69;81.65;99970.62;232319;1175;115296;-66
2021/04/16 07:31:49;;;;;;;17.10;9.53;;;;;;;4.70;81.49;99972.25;234335;1175;115469;-65
2021/04/16 07:37:11;;;;;;;14.70;10.50;;;;;;;4.73;81.59;99977.97;232835;1175;115889;-65
2021/04/16 07:42:17;;;;;;;13.70;9.40;;;;;;;4.74;81.82;99979.61;235047;1174;116027;-65
2021/04/16 07:47:25;;;;;;;12.00;9.45;;;;;;;4.80;81.76;99972.75;234755;1175;115266;-65
2021/04/16 07:52:42;;;;;;;14.37;9.90;;;;;;;4.85;81.86;99978.28;234942;1175;114420;-66
2021/04/16 07:58:08;;;;;;;14.48;9.80;;;;;;;5.01;81.01;99980.62;234980;1174;115594;-66
2021/04/16 08:03:16;;;;;;;6.73;5.50;;;;;;;5.13;81.24;99980.91;235010;1174;115112;-66
2021/04/16 08:08:21;;;;;;;16.43;9.15;;;;;;;5.14;81.16;99985.19;234348;1174;114928;-66
2021/04/16 08:13:35;;;;;;;13.63;7.88;;;;;;;5.16;81.01;99985.00;234328;1174;115251;-65
2021/04/16 08:19:01;;;;;;;9.40;7.23;;;;;;;5.19;80.93;99979.33;234087;1176;117815;-65
2021/04/16 08:24:21;;;;;;;8.30;7.50;;;;;;;5.21;81.34;99979.92;233615;1174;116181;-65
2021/04/16 08:29:39;;;;;;;10.43;8.00;;;;;;;5.22;80.96;99974.44;233908;1174;115577;-65
2021/04/16 08:34:47;;;;;;;11.73;7.85;;;;;;;5.27;80.64;99979.97;232920;1174;115431;-67
2021/04/16 08:39:52;;;;;;;12.75;7.45;;;;;;;5.27;80.89;99990.55;232423;1174;115383;-67
2021/04/16 08:45:08;;;;;;;9.58;7.95;;;;;;;5.28;80.59;99983.43;233818;1174;115694;-65
2021/04/16 08:50:12;;;;;;;11.80;8.45;;;;;;;5.34;80.93;99986.12;232963;1174;115223;-65
2021/04/16 08:55:25;;;;;;;15.15;8.45;;;;;;;5.38;80.90;99987.36;232924;1175;115455;-65
2021/04/16 09:01:11;;;;;;;10.78;7.00;;;;;;;5.44;80.57;99982.31;232454;1176;115255;-66
2021/04/16 09:06:44;;;;;;;10.30;7.23;;;;;;;5.45;80.57;99976.83;232990;1174;115469;-67
2021/04/16 09:11:48;;;;;;;8.13;4.10;;;;;;;5.48;80.21;99979.09;232574;1174;115372;-65
2021/04/16 09:16:55;;;;;;;7.60;4.33;;;;;;;5.43;80.32;99985.97;233764;1175;115662;-66
2021/04/16 09:22:05;;;;;;;12.60;9.73;;;;;;;5.45;80.51;99976.02;233696;1176;114790;-65
2021/04/16 09:27:39;;;;;;;10.75;7.00;;;;;;;5.44;80.81;99983.13;232967;1176;116635;-65
2021/04/16 09:32:54;;;;;;;6.80;4.60;;;;;;;5.48;80.41;99981.73;233407;1174;138499;-65
2021/04/16 09:38:29;;;;;;;7.00;6.05;;;;;;;5.58;80.30;99982.17;233103;1175;115312;-65
2021/04/16 09:43:35;;;;;;;13.30;6.93;;;;;;;5.58;80.05;99979.52;233594;1174;114891;-66
2021/04/16 09:48:53;;;;;;;9.83;7.37;;;;;;;5.51;79.71;99991.89;233833;1175;114720;-66
2021/04/16 09:54:25;;;;;;;6.95;6.05;;;;;;;5.56;79.75;99983.38;234942;1176;114637;-66
2021/04/16 09:59:34;;;;;;;9.20;6.37;;;;;;;5.53;80.08;99996.98;234985;1175;115885;-67
2021/04/16 10:04:43;;;;;;;6.28;5.78;;;;;;;5.60;79.88;99989.91;234999;1175;115262;-66
2021/04/16 10:09:46;;;;;;;8.05;5.88;;;;;;;5.75;79.99;99993.25;233831;1176;114650;-65
2021/04/16 10:14:50;;;;;;;12.38;6.50;;;;;;;5.70;79.41;99985.91;233319;1176;114952;-66
2021/04/16 10:20:09;;;;;;;9.20;5.85;;;;;;;5.63;79.88;99979.76;233712;1174;115523;-65
2021/04/16 12:42:48;;;;;;;9.93;8.93;;;;;;;5.47;80.45;99990.67;233588;1174;114851;-65
2021/04/16 12:47:57;;;;;;;19.83;9.37;;;;;;;5.47;80.17;99990.67;232476;1175;115192;-65
2021/04/16 12:53:01;;;;;;;17.15;10.65;;;;;;;5.49;80.34;99982.55;232556;1176;115143;-65
2021/04/16 12:58:09;;;;;;;16.65;11.00;;;;;;;5.57;80.14;99977.89;232553;1175;115616;-66
2021/04/16 13:03:26;;;;;;;16.88;9.80;;;;;;;5.68;80.26;99982.63;232513;1176;115703;-65
2021/04/16 13:08:30;;;;;;;18.83;10.65;;;;;;;5.73;80.35;99974.11;232593;1175;115228;-65
2021/04/16 13:13:36;;;;;;;11.63;8.93;;;;;;;5.73;80.31;99966.18;232974;1174;116051;-65
2021/04/16 13:18:44;;;;;;;16.00;13.28;;;;;;;5.80;80.24;99960.92;232498;1171;114846;-64
2021/04/16 13:23:55;;;;;;;14.40;11.65;;;;;;;5.86;79.96;99963.56;232332;1175;116153;-65
2021/04/16 13:28:59;;;;;;;20.07;12.90;;;;;;;5.85;80.05;99961.11;233514;1170;115964;-66
2021/04/16 13:34:03;;;;;;;14.50;10.58;;;;;;;5.83;80.56;99965.78;232784;1176;115645;-65
2021/04/16 13:39:08;;;;;;;15.70;13.33;;;;;;;5.87;80.15;99964.38;233504;1174;115464;-66
2021/04/16 13:44:15;;;;;;;14.50;12.30;;;;;;;5.83;79.92;99953.38;233696;1170;115576;-64
2021/04/16 13:49:24;;;;;;;20.68;13.83;;;;;;;5.84;80.25;99962.94;234631;1172;114781;-67
2021/04/16 13:54:29;;;;;;;;;;;;;;;5.83;79.93;99952.55;234333;1170;115616;-66
2021/04/16 13:59:33;;;;;;;14.00;11.53;;;;;;;5.78;80.12;99963.76;233035;1176;103903;-67
2021/04/16 14:04:40;;;;;;;21.77;14.97;;;;;;;5.77;80.00;99961.31;235111;1175;117230;-67
2021/04/16 14:09:43;;;;;;;20.03;14.28;;;;;;;5.72;79.87;99960.07;234912;1174;115779;-68
2021/04/16 14:14:46;;;;;;;12.00;10.65;;;;;;;5.68;80.08;99964.12;235075;1174;115135;-63
2021/04/16 14:20:02;;;;;;;11.80;10.68;;;;;;;5.64;79.85;99960.23;233134;1174;116577;-67
2021/04/16 14:25:10;;;;;;;19.57;12.27;;;;;;;5.67;80.04;99954.55;232781;1176;116350;-65
2021/04/16 14:30:30;;;;;;;13.83;12.53;;;;;;;5.72;79.99;99961.90;232638;1175;117085;-68
2021/04/16 14:35:34;;;;;;;16.65;14.25;;;;;;;5.66;80.15;99967.97;233836;1176;116194;-66
2021/04/16 14:40:38;;;;;;;18.37;12.90;;;;;;;5.68;80.03;99972.05;232595;1175;117160;-69
2021/04/16 14:45:45;;;;;;;20.60;14.40;;;;;;;5.72;80.31;99960.07;233620;1176;116169;-65
2021/04/16 14:50:52;;;;;;;17.10;14.80;;;;;;;5.68;80.68;99960.66;232968;1176;117591;-64
2021/04/16 14:56:00;;;;;;;16.63;10.90;;;;;;;5.63;80.05;99969.18;232491;1177;117294;-65
2021/04/16 15:01:03;;;;;;;14.87;12.90;;;;;;;5.61;80.83;99973.84;232535;1175;117441;-67
2021/04/16 15:06:11;;;;;;;22.17;12.27;;;;;;;5.57;80.32;99977.89;232949;1174;115545;-65
2021/04/16 15:11:20;;;;;;;15.90;12.85;;;;;;;5.54;80.53;99980.92;232670;1176;116455;-64
2021/04/16 15:16:24;;;;;;;18.30;11.10;;;;;;;5.48;80.94;99976.45;232272;1175;116233;-64
2021/04/16 15:21:28;;;;;;;18.00;14.60;;;;;;;5.49;81.12;99985.19;232655;1174;115094;-64
2021/04/16 15:26:32;;;;;;;20.00;11.48;;;;;;;5.50;80.70;99979.71;232391;1174;116233;-66
2021/04/16 15:31:39;;;;;;;11.75;9.15;;;;;;;5.45;80.81;99971.55;232612;1176;115877;-66
2021/04/16 15:47:37;;;;;;;16.48;10.95;;;;;;;5.35;81.12;99985.11;234270;1175;116046;-64
2021/04/16 15:52:42;;;;;;;10.13;9.00;;;;;;;5.35;81.58;99981.65;233115;1175;115827;-67
2021/04/16 15:57:47;;;;;;;17.75;11.73;;;;;;;5.35;81.78;99982.47;234174;1174;115722;-66
2021/04/16 16:02:51;;;;;;;14.63;11.23;;;;;;;5.43;81.31;99989.43;234448;1175;116017;-65
2021/04/16 16:07:54;;;;;;;9.90;7.38;;;;;;;5.40;80.62;99982.70;234955;1174;115363;-67
2021/04/16 16:13:02;;;;;;;5.93;5.08;;;;;;;5.34;80.47;99994.05;233527;1175;114918;-66
2021/04/16 16:18:11;;;;;;;6.00;5.40;;;;;;;5.28;80.66;99997.46;233938;1175;115051;-66
2021/04/16 16:23:18;;;;;;;6.47;5.13;;;;;;;5.20;80.94;100005.53;232862;1176;115547;-65
2021/04/16 16:28:25;;;;;;;6.65;4.55;;;;;;;5.15;80.70;100007.15;233772;1175;115531;-65
2021/04/16 16:33:27;;;;;;;10.13;6.30;;;;;;;5.14;81.16;100006.33;233126;1174;116392;-65
2021/04/16 16:38:30;;;;;;;8.03;5.20;;;;;;;5.11;81.03;100009.35;232288;1174;115742;-66
2021/04/16 16:43:39;;;;;;;6.15;4.23;;;;;;;5.05;80.68;100003.01;233384;1174;115247;-66
2021/04/16 16:49:02;;;;;;;5.85;5.23;;;;;;;5.07;80.85;99998.35;232652;1175;115585;-65
2021/04/16 16:54:07;;;;;;;6.00;5.50;;;;;;;5.03;81.24;99999.73;232329;1175;115916;-65
2021/04/16 16:59:11;;;;;;;7.75;5.25;;;;;;;4.96;81.24;99998.87;232399;1175;114627;-65
2021/04/16 17:04:14;;;;;;;6.00;5.47;;;;;;;4.87;81.38;100000.03;232548;1174;115288;-65
2021/04/16 17:09:17;;;;;;;7.67;5.13;;;;;;;4.83;80.75;100006.70;232457;1174;115052;-66
2021/04/16 17:14:37;;;;;;;4.68;4.23;;;;;;;4.67;80.96;100012.23;233112;1175;116295;-65
2021/04/16 17:19:41;;;;;;;3.53;2.73;;;;;;;4.56;81.60;100023.33;232799;1175;115703;-64
2021/04/16 17:24:46;;;;;;;8.13;4.40;;;;;;;4.50;80.81;100024.07;233495;1174;115151;-65
2021/04/16 17:29:52;;;;;;;8.10;7.25;;;;;;;4.44;81.39;100027.45;233443;1171;115635;-68
2021/04/16 17:34:55;;;;;;;23.75;13.28;;;;;;;4.29;80.83;100032.77;232972;1175;115875;-68
2021/04/16 17:39:57;;;;;;;22.00;11.60;;;;;;;4.22;81.58;100032.72;232838;1175;116463;-68
2021/04/16 17:45:17;;;;;;;4.88;2.73;;;;;;;4.22;81.64;100048.55;233546;1171;115354;-67
2021/04/16 17:51:00;;;;;;;3.10;2.88;;;;;;;4.20;81.66;100050.56;233701;1174;115960;-68
2021/04/16 17:56:04;;;;;;;2.50;2.30;;;;;;;4.20;81.66;100050.56;233769;1174;115748;-68
2021/04/16 18:01:10;;;;;;;6.10;3.63;;;;;;;4.24;81.07;100051.83;235133;1175;115763;-67
2021/04/16 18:06:17;;;;;;;3.73;2.98;;;;;;;4.23;81.09;100052.02;235174;1174;116268;-66
2021/04/16 18:11:26;;;;;;;4.70;2.63;;;;;;;4.23;81.46;100052.83;233209;1174;115405;-69
2021/04/16 18:16:32;;;;;;;;;;;;;;;4.22;80.89;100061.75;232869;1174;115861;-67
2021/04/16 18:21:41;;;;;;;4.70;2.98;;;;;;;4.20;81.29;100055.02;233030;1175;103070;-67
2021/04/16 18:26:45;;;;;;;3.23;2.93;;;;;;;4.18;81.49;100065.75;233260;1176;115025;-67
2021/04/16 18:31:48;;;;;;;3.05;2.68;;;;;;;4.12;81.41;100061.21;232269;1174;114804;-66
2021/04/16 18:36:51;;;;;;;3.53;3.23;;;;;;;4.15;80.93;100067.94;233991;1176;206833;-67
2021/04/16 18:42:13;;;;;;;8.68;4.20;;;;;;;4.16;81.69;100073.03;232890;1175;115829;-66
2021/04/16 18:47:16;;;;;;;7.95;5.60;;;;;;;4.14;81.47;100072.40;232619;1174;115205;-65
2021/04/16 18:52:26;;;;;;;7.20;5.40;;;;;;;4.11;81.34;100071.95;232628;1174;115308;-65
2021/04/16 18:57:30;;;;;;;7.53;4.83;;;;;;;4.18;81.47;100068.39;232959;1171;115368;-65
2021/04/16 19:02:33;;;;;;;5.85;5.25;;;;;;;4.21;81.22;100073.30;232715;1174;115955;-66
2021/04/16 19:07:36;;;;;;;7.33;5.33;;;;;;;4.18;81.73;100071.03;233226;1174;116227;-66
2021/04/16 19:12:39;;;;;;;6.73;5.83;;;;;;;4.23;81.76;100071.30;232981;1176;116181;-65
2021/04/16 19:17:42;;;;;;;4.90;4.50;;;;;;;4.24;81.74;100066.84;232957;1174;116929;-65
2021/04/16 19:22:53;;;;;;;9.08;6.75;;;;;;;4.26;82.14;100070.93;232589;1174;117768;-64
2021/04/16 19:27:58;;;;;;;9.73;8.17;;;;;;;4.26;81.98;100065.66;233096;1176;115778;-65
2021/04/16 19:33:07;;;;;;;11.75;8.23;;;;;;;4.30;82.02;100066.89;232978;1174;116824;-67
2021/04/16 19:38:14;;;;;;;10.73;7.28;;;;;;;4.30;82.23;100072.17;232556;1174;116437;-66
2021/04/16 19:43:20;;;;;;;15.40;12.90;;;;;;;4.28;81.90;100066.26;233074;1176;115965;-62
2021/04/16 20:20:57;;;;;;;10.10;6.90;;;;;;;4.62;81.18;100055.05;233585;1175;116462;-65
2021/04/16 20:26:18;;;;;;;8.53;7.43;;;;;;;4.64;82.04;100062.78;232537;1175;115122;-63
2021/04/16 20:31:25;;;;;;;11.43;9.30;;;;;;;4.62;81.56;100059.51;233403;1175;115761;-66
2021/04/16 20:36:30;;;;;;;10.50;7.98;;;;;;;4.63;81.14;100059.32;232736;1175;115248;-65
2021/04/16 20:41:35;;;;;;;11.13;8.88;;;;;;;4.64;81.85;100068.06;233500;1174;115553;-65
2021/04/16 20:46:43;;;;;;;13.60;11.83;;;;;;;4.62;81.35;100062.15;233314;1170;116124;-65
2021/04/16 20:51:52;;;;;;;16.78;10.20;;;;;;;4.63;81.38;100071.70;233202;1167;116158;-65
2021/04/16 20:56:57;;;;;;;10.15;9.15;;;;;;;4.66;81.40;100071.33;232661;1174;115809;-65
2021/04/16 21:02:10;;;;;;;12.17;10.30;;;;;;;4.61;81.75;100073.72;232792;1171;115657;-66
2021/04/16 21:07:21;;;;;;;15.40;10.60;;;;;;;4.64;81.70;100066.23;232575;1177;115308;-64
2021/04/16 21:12:29;;;;;;;14.85;10.03;;;;;;;4.64;81.61;100065.42;232869;1176;116519;-65
2021/04/16 21:17:35;;;;;;;12.40;9.70;;;;;;;4.59;81.85;100065.98;232407;1174;175125;-64
2021/04/16 21:22:40;;;;;;;12.67;9.97;;;;;;;4.50;81.70;100061.03;233830;1175;114801;-64
2021/04/16 21:27:44;;;;;;;13.73;12.50;;;;;;;4.47;81.54;100064.86;232532;1170;115072;-64
2021/04/16 21:32:51;;;;;;;11.80;10.60;;;;;;;4.48;82.05;100069.13;232591;1176;116810;-65
2021/04/16 21:37:57;;;;;;;12.15;9.85;;;;;;;4.49;81.42;100065.48;233356;1177;115500;-64
2021/04/16 21:43:06;;;;;;;17.73;10.33;;;;;;;4.53;82.10;100072.03;232715;1174;115495;-65
2021/04/16 21:48:17;;;;;;;15.18;13.00;;;;;;;4.58;82.29;100074.94;232583;1174;115724;-64
2021/04/16 21:53:25;;;;;;;14.88;11.83;;;;;;;4.54;82.37;100071.03;233198;1176;115995;-65
2021/04/16 21:58:29;;;;;;;13.83;11.97;;;;;;;4.56;82.21;100073.48;234197;1176;115311;-65
2021/04/16 22:03:41;;;;;;;15.30;12.53;;;;;;;4.60;81.96;100069.44;234943;1170;115568;-66
2021/04/16 22:09:06;;;;;;;21.60;13.00;;;;;;;4.59;81.60;100068.63;234909;1174;116897;-65
2021/04/16 22:14:34;;;;;;;17.80;15.08;;;;;;;4.64;81.46;100066.23;235037;1174;115645;-67
2021/04/16 22:19:41;;;;;;;19.83;12.30;;;;;;;4.64;81.54;100068.88;235054;1174;115333;-66
2021/04/16 22:24:51;;;;;;;15.90;13.25;;;;;;;4.63;81.51;100069.06;232903;1174;116087;-68
2021/04/16 22:30:11;;;;;;;22.53;14.30;;;;;;;4.64;82.01;100070.70;232575;1174;116126;-66
2021/04/16 22:35:30;;;;;;;18.13;11.93;;;;;;;4.63;81.94;100071.70;233078;1176;116866;-66
2021/04/16 22:40:36;;;;;;;14.10;12.50;;;;;;;4.59;81.63;100073.08;232711;1172;116273;-66
2021/04/16 22:45:42;;;;;;;17.70;14.33;;;;;;;4.59;82.08;100071.27;232364;1175;116178;-66
2021/04/16 22:50:47;;;;;;;16.05;12.38;;;;;;;4.58;81.68;100079.40;233361;1167;115537;-66
2021/04/16 22:55:51;;;;;;;18.50;13.87;;;;;;;4.55;82.27;100077.13;232683;1174;115080;-66
2021/04/16 23:01:03;;;;;;;20.40;12.95;;;;;;;4.55;81.67;100071.84;232567;1174;115241;-66
2021/04/16 23:06:31;;;;;;;14.65;12.43;;;;;;;4.51;81.36;100076.69;232895;1174;116248;-67
2021/04/16 23:11:35;;;;;;;;;;;;;;;4.47;82.24;100077.23;232757;1174;115664;-66
2021/04/16 23:16:46;;;;;;;19.18;13.85;;;;;;;4.43;82.41;100073.33;233761;1174;104635;-66
2021/04/16 23:21:57;;;;;;;14.13;12.55;;;;;;;4.47;81.66;100079.88;233650;1174;115794;-66
2021/04/16 23:27:08;;;;;;;17.97;13.53;;;;;;;4.49;82.46;100078.69;233695;1174;115607;-66
2021/04/16 23:32:20;;;;;;;20.93;15.08;;;;;;;4.44;82.06;100074.97;232433;1174;116690;-66
2021/04/16 23:37:26;;;;;;;20.50;14.40;;;;;;;4.45;82.18;100076.60;232561;1176;115914;-67
2021/04/16 23:42:31;;;;;;;21.73;16.07;;;;;;;4.44;81.90;100067.05;232934;1174;118279;-66
2021/04/16 23:47:35;;;;;;;20.15;15.78;;;;;;;4.40;82.44;100056.86;232382;1174;116181;-66
2021/04/16 23:52:39;;;;;;;22.33;16.08;;;;;;;4.41;82.10;100057.68;232576;1176;116322;-64
2021/04/16 23:57:41;;;;;;;32.20;16.00;;;;;;;4.45;81.95;100055.48;234053;1176;116282;-64
